Welwyn, United Kingdom
Current Conditions -  °F | °C
As of 6:20 AM on Thursday 29 Jan 2015 (Local Time) from EGGW Reporting Station
Clear Clear  
Wind Chill: -5°   Ceiling: Unl
Heat Index:   Visibility: 6mi
Dew Point: -1°   Wind: 20mph
Humidity: 87%   Direction: 240°WSW
Pressure: 29.21"   Gusts: NA
Location:  51.81°N, 0.18°W
Report Text: EGGW 290620Z 24017KT CAVOK 01/M01 Q0989
Loading
Personal Weather Stations






























Interactive Weather Map New forecast layout! Learn more

10-Day Weather Forecast

Advertisements
Track Severe Weather on mobile